sensor_id;sensor_type;location;lat;lon;timestamp;P1;durP1;ratioP1;P2;durP2;ratioP2
26098;SDS011;13860;52.370;6.764;2024-02-04T00:00:37;23.35;;;10.50;;
26098;SDS011;13860;52.370;6.764;2024-02-04T00:03:45;21.58;;;10.20;;
26098;SDS011;13860;52.370;6.764;2024-02-04T00:06:50;24.08;;;8.20;;
26098;SDS011;13860;52.370;6.764;2024-02-04T00:09:58;18.33;;;8.27;;
26098;SDS011;13860;52.370;6.764;2024-02-04T00:13:03;14.82;;;7.68;;
26098;SDS011;13860;52.370;6.764;2024-02-04T00:16:14;10.07;;;5.55;;
26098;SDS011;13860;52.370;6.764;2024-02-04T00:19:19;10.27;;;5.50;;
26098;SDS011;13860;52.370;6.764;2024-02-04T00:22:27;14.27;;;5.40;;
26098;SDS011;13860;52.370;6.764;2024-02-04T00:25:33;10.35;;;5.05;;
26098;SDS011;13860;52.370;6.764;2024-02-04T00:28:40;13.43;;;4.07;;
26098;SDS011;13860;52.370;6.764;2024-02-04T00:31:48;11.65;;;4.15;;
26098;SDS011;13860;52.370;6.764;2024-02-04T00:34:56;13.77;;;4.07;;
26098;SDS011;13860;52.370;6.764;2024-02-04T00:38:02;11.65;;;4.13;;
26098;SDS011;13860;52.370;6.764;2024-02-04T00:41:09;12.00;;;4.10;;
26098;SDS011;13860;52.370;6.764;2024-02-04T00:44:15;8.77;;;4.03;;
26098;SDS011;13860;52.370;6.764;2024-02-04T00:47:25;12.68;;;4.63;;
26098;SDS011;13860;52.370;6.764;2024-02-04T00:50:30;11.25;;;4.25;;
26098;SDS011;13860;52.370;6.764;2024-02-04T00:53:38;14.90;;;4.65;;
26098;SDS011;13860;52.370;6.764;2024-02-04T00:56:44;10.50;;;4.30;;
26098;SDS011;13860;52.370;6.764;2024-02-04T00:59:51;12.70;;;5.32;;
26098;SDS011;13860;52.370;6.764;2024-02-04T01:03:00;13.27;;;5.13;;
26098;SDS011;13860;52.370;6.764;2024-02-04T01:06:07;11.98;;;6.13;;
26098;SDS011;13860;52.370;6.764;2024-02-04T01:09:14;10.73;;;4.97;;
26098;SDS011;13860;52.370;6.764;2024-02-04T01:12:22;15.85;;;5.43;;
26098;SDS011;13860;52.370;6.764;2024-02-04T01:15:27;14.02;;;5.80;;
26098;SDS011;13860;52.370;6.764;2024-02-04T01:18:37;12.55;;;5.35;;
26098;SDS011;13860;52.370;6.764;2024-02-04T01:21:43;10.48;;;5.07;;
26098;SDS011;13860;52.370;6.764;2024-02-04T01:24:51;14.45;;;6.50;;
26098;SDS011;13860;52.370;6.764;2024-02-04T01:27:57;15.30;;;6.03;;
26098;SDS011;13860;52.370;6.764;2024-02-04T01:31:04;12.60;;;7.05;;
26098;SDS011;13860;52.370;6.764;2024-02-04T01:34:12;12.73;;;6.25;;
26098;SDS011;13860;52.370;6.764;2024-02-04T01:37:20;15.23;;;7.22;;
26098;SDS011;13860;52.370;6.764;2024-02-04T01:40:26;12.50;;;6.65;;
26098;SDS011;13860;52.370;6.764;2024-02-04T01:43:34;10.70;;;6.03;;
26098;SDS011;13860;52.370;6.764;2024-02-04T01:46:40;13.48;;;6.45;;
26098;SDS011;13860;52.370;6.764;2024-02-04T01:49:51;14.88;;;6.13;;
26098;SDS011;13860;52.370;6.764;2024-02-04T01:52:56;13.75;;;6.38;;
26098;SDS011;13860;52.370;6.764;2024-02-04T01:56:07;16.92;;;6.75;;
26098;SDS011;13860;52.370;6.764;2024-02-04T01:59:13;15.85;;;7.05;;
26098;SDS011;13860;52.370;6.764;2024-02-04T02:02:21;12.38;;;6.53;;
26098;SDS011;13860;52.370;6.764;2024-02-04T02:05:29;21.73;;;7.30;;
26098;SDS011;13860;52.370;6.764;2024-02-04T02:08:37;12.00;;;7.35;;
26098;SDS011;13860;52.370;6.764;2024-02-04T02:11:44;15.73;;;6.55;;
26098;SDS011;13860;52.370;6.764;2024-02-04T02:14:57;19.10;;;7.27;;
26098;SDS011;13860;52.370;6.764;2024-02-04T02:18:09;19.48;;;8.13;;
26098;SDS011;13860;52.370;6.764;2024-02-04T02:21:47;11.80;;;7.20;;
26098;SDS011;13860;52.370;6.764;2024-02-04T02:24:59;16.00;;;7.22;;
26098;SDS011;13860;52.370;6.764;2024-02-04T02:28:11;13.05;;;5.28;;
26098;SDS011;13860;52.370;6.764;2024-02-04T02:31:16;11.15;;;5.40;;
26098;SDS011;13860;52.370;6.764;2024-02-04T02:34:34;10.05;;;4.90;;
26098;SDS011;13860;52.370;6.764;2024-02-04T02:37:43;12.88;;;5.40;;
26098;SDS011;13860;52.370;6.764;2024-02-04T02:40:57;15.00;;;4.93;;
26098;SDS011;13860;52.370;6.764;2024-02-04T02:44:07;12.35;;;4.82;;
26098;SDS011;13860;52.370;6.764;2024-02-04T02:47:16;7.93;;;4.45;;
26098;SDS011;13860;52.370;6.764;2024-02-04T02:50:23;13.55;;;4.78;;
26098;SDS011;13860;52.370;6.764;2024-02-04T02:53:31;10.75;;;4.13;;
26098;SDS011;13860;52.370;6.764;2024-02-04T02:56:39;8.00;;;4.22;;
26098;SDS011;13860;52.370;6.764;2024-02-04T02:59:47;10.75;;;3.95;;
26098;SDS011;13860;52.370;6.764;2024-02-04T03:02:52;15.93;;;5.20;;
26098;SDS011;13860;52.370;6.764;2024-02-04T03:06:00;11.25;;;4.40;;
26098;SDS011;13860;52.370;6.764;2024-02-04T03:09:05;10.85;;;4.03;;
26098;SDS011;13860;52.370;6.764;2024-02-04T03:12:16;7.25;;;3.67;;
26098;SDS011;13860;52.370;6.764;2024-02-04T03:15:22;9.70;;;3.63;;
26098;SDS011;13860;52.370;6.764;2024-02-04T03:18:30;11.35;;;4.30;;
26098;SDS011;13860;52.370;6.764;2024-02-04T03:21:35;11.32;;;3.95;;
26098;SDS011;13860;52.370;6.764;2024-02-04T03:24:43;13.60;;;5.18;;
26098;SDS011;13860;52.370;6.764;2024-02-04T03:27:51;9.02;;;3.63;;
26098;SDS011;13860;52.370;6.764;2024-02-04T03:30:59;14.65;;;4.25;;
26098;SDS011;13860;52.370;6.764;2024-02-04T03:34:05;10.85;;;4.05;;
26098;SDS011;13860;52.370;6.764;2024-02-04T03:37:13;10.02;;;4.82;;
26098;SDS011;13860;52.370;6.764;2024-02-04T03:40:18;13.82;;;4.93;;
26098;SDS011;13860;52.370;6.764;2024-02-04T03:43:31;13.05;;;4.78;;
26098;SDS011;13860;52.370;6.764;2024-02-04T03:46:37;11.82;;;4.20;;
26098;SDS011;13860;52.370;6.764;2024-02-04T03:49:46;13.80;;;5.07;;
26098;SDS011;13860;52.370;6.764;2024-02-04T03:52:51;15.82;;;5.07;;
26098;SDS011;13860;52.370;6.764;2024-02-04T03:56:01;19.02;;;5.00;;
26098;SDS011;13860;52.370;6.764;2024-02-04T03:59:09;15.77;;;4.78;;
26098;SDS011;13860;52.370;6.764;2024-02-04T04:02:17;15.13;;;4.40;;
26098;SDS011;13860;52.370;6.764;2024-02-04T04:05:23;9.35;;;3.85;;
26098;SDS011;13860;52.370;6.764;2024-02-04T04:08:30;12.88;;;3.53;;
26098;SDS011;13860;52.370;6.764;2024-02-04T04:11:36;16.17;;;4.50;;
26098;SDS011;13860;52.370;6.764;2024-02-04T04:14:46;11.77;;;3.90;;
26098;SDS011;13860;52.370;6.764;2024-02-04T04:17:52;11.43;;;4.40;;
26098;SDS011;13860;52.370;6.764;2024-02-04T04:20:59;19.42;;;5.25;;
26098;SDS011;13860;52.370;6.764;2024-02-04T04:24:05;10.00;;;4.05;;
26098;SDS011;13860;52.370;6.764;2024-02-04T04:27:13;8.98;;;3.60;;
26098;SDS011;13860;52.370;6.764;2024-02-04T04:30:21;9.65;;;3.67;;
26098;SDS011;13860;52.370;6.764;2024-02-04T04:33:30;8.93;;;4.30;;
26098;SDS011;13860;52.370;6.764;2024-02-04T04:36:36;10.18;;;4.90;;
26098;SDS011;13860;52.370;6.764;2024-02-04T04:39:44;19.88;;;4.35;;
26098;SDS011;13860;52.370;6.764;2024-02-04T04:42:49;15.52;;;4.20;;
26098;SDS011;13860;52.370;6.764;2024-02-04T04:46:00;17.48;;;3.83;;
26098;SDS011;13860;52.370;6.764;2024-02-04T04:49:06;9.05;;;3.42;;
26098;SDS011;13860;52.370;6.764;2024-02-04T04:52:14;11.00;;;3.40;;
26098;SDS011;13860;52.370;6.764;2024-02-04T04:55:21;11.15;;;3.28;;
26098;SDS011;13860;52.370;6.764;2024-02-04T04:58:28;18.38;;;4.00;;
26098;SDS011;13860;52.370;6.764;2024-02-04T05:01:36;11.13;;;2.83;;
26098;SDS011;13860;52.370;6.764;2024-02-04T05:04:44;13.90;;;3.28;;
26098;SDS011;13860;52.370;6.764;2024-02-04T05:07:50;9.95;;;2.83;;
26098;SDS011;13860;52.370;6.764;2024-02-04T05:10:58;7.70;;;2.55;;
26098;SDS011;13860;52.370;6.764;2024-02-04T05:14:03;9.38;;;2.40;;
26098;SDS011;13860;52.370;6.764;2024-02-04T05:17:14;9.05;;;2.42;;
26098;SDS011;13860;52.370;6.764;2024-02-04T05:20:20;12.65;;;2.25;;
26098;SDS011;13860;52.370;6.764;2024-02-04T05:23:27;11.07;;;2.30;;
26098;SDS011;13860;52.370;6.764;2024-02-04T05:26:33;14.63;;;3.25;;
26098;SDS011;13860;52.370;6.764;2024-02-04T05:29:40;7.47;;;2.20;;
26098;SDS011;13860;52.370;6.764;2024-02-04T05:32:49;11.98;;;2.20;;
26098;SDS011;13860;52.370;6.764;2024-02-04T05:35:57;16.58;;;2.08;;
26098;SDS011;13860;52.370;6.764;2024-02-04T05:39:08;9.00;;;2.22;;
26098;SDS011;13860;52.370;6.764;2024-02-04T05:42:17;6.80;;;2.10;;
26098;SDS011;13860;52.370;6.764;2024-02-04T05:45:23;15.98;;;2.53;;
26098;SDS011;13860;52.370;6.764;2024-02-04T05:48:33;6.10;;;1.67;;
26098;SDS011;13860;52.370;6.764;2024-02-04T05:51:39;15.52;;;3.13;;
26098;SDS011;13860;52.370;6.764;2024-02-04T05:54:47;6.78;;;1.50;;
26098;SDS011;13860;52.370;6.764;2024-02-04T05:57:53;14.73;;;2.13;;
26098;SDS011;13860;52.370;6.764;2024-02-04T06:01:01;13.30;;;2.22;;
26098;SDS011;13860;52.370;6.764;2024-02-04T06:04:10;5.07;;;1.55;;
26098;SDS011;13860;52.370;6.764;2024-02-04T06:07:18;17.85;;;2.38;;
26098;SDS011;13860;52.370;6.764;2024-02-04T06:10:23;11.38;;;2.33;;
26098;SDS011;13860;52.370;6.764;2024-02-04T06:13:31;7.30;;;1.88;;
26098;SDS011;13860;52.370;6.764;2024-02-04T06:16:36;14.98;;;1.98;;
26098;SDS011;13860;52.370;6.764;2024-02-04T06:19:46;6.88;;;1.67;;
26098;SDS011;13860;52.370;6.764;2024-02-04T06:22:52;9.60;;;1.65;;
26098;SDS011;13860;52.370;6.764;2024-02-04T06:26:02;4.85;;;1.30;;
26098;SDS011;13860;52.370;6.764;2024-02-04T06:29:08;6.70;;;1.55;;
26098;SDS011;13860;52.370;6.764;2024-02-04T06:32:16;4.60;;;1.58;;
26098;SDS011;13860;52.370;6.764;2024-02-04T06:35:24;10.73;;;2.03;;
26098;SDS011;13860;52.370;6.764;2024-02-04T06:38:32;9.13;;;2.05;;
26098;SDS011;13860;52.370;6.764;2024-02-04T06:41:37;9.85;;;1.83;;
26098;SDS011;13860;52.370;6.764;2024-02-04T06:44:45;14.27;;;2.38;;
26098;SDS011;13860;52.370;6.764;2024-02-04T06:47:51;13.15;;;2.25;;
26098;SDS011;13860;52.370;6.764;2024-02-04T06:51:01;8.73;;;1.70;;
26098;SDS011;13860;52.370;6.764;2024-02-04T06:54:07;14.82;;;2.25;;
26098;SDS011;13860;52.370;6.764;2024-02-04T06:57:14;14.75;;;2.08;;
26098;SDS011;13860;52.370;6.764;2024-02-04T07:00:20;8.85;;;1.70;;
26098;SDS011;13860;52.370;6.764;2024-02-04T07:03:28;16.70;;;2.40;;
26098;SDS011;13860;52.370;6.764;2024-02-04T07:06:37;11.82;;;1.83;;
26098;SDS011;13860;52.370;6.764;2024-02-04T07:09:44;11.40;;;2.20;;
26098;SDS011;13860;52.370;6.764;2024-02-04T07:12:50;12.43;;;2.05;;
26098;SDS011;13860;52.370;6.764;2024-02-04T07:15:58;9.43;;;2.10;;
26098;SDS011;13860;52.370;6.764;2024-02-04T07:19:03;15.20;;;1.67;;
26098;SDS011;13860;52.370;6.764;2024-02-04T07:22:14;11.55;;;2.10;;
26098;SDS011;13860;52.370;6.764;2024-02-04T07:25:19;10.63;;;2.15;;
26098;SDS011;13860;52.370;6.764;2024-02-04T07:28:27;17.45;;;2.15;;
26098;SDS011;13860;52.370;6.764;2024-02-04T07:31:33;18.27;;;3.55;;
26098;SDS011;13860;52.370;6.764;2024-02-04T07:34:41;14.73;;;2.70;;
26098;SDS011;13860;52.370;6.764;2024-02-04T07:37:50;10.32;;;2.28;;
26098;SDS011;13860;52.370;6.764;2024-02-04T07:40:58;12.93;;;2.17;;
26098;SDS011;13860;52.370;6.764;2024-02-04T07:44:04;11.93;;;2.40;;
26098;SDS011;13860;52.370;6.764;2024-02-04T07:47:12;19.33;;;2.55;;
26098;SDS011;13860;52.370;6.764;2024-02-04T07:50:18;15.20;;;2.13;;
26098;SDS011;13860;52.370;6.764;2024-02-04T07:53:28;15.80;;;2.72;;
26098;SDS011;13860;52.370;6.764;2024-02-04T07:56:34;8.15;;;2.10;;
26098;SDS011;13860;52.370;6.764;2024-02-04T07:59:41;20.88;;;4.30;;
26098;SDS011;13860;52.370;6.764;2024-02-04T08:02:47;10.10;;;1.98;;
26098;SDS011;13860;52.370;6.764;2024-02-04T08:05:54;17.45;;;2.42;;
26098;SDS011;13860;52.370;6.764;2024-02-04T08:09:02;9.55;;;1.60;;
26098;SDS011;13860;52.370;6.764;2024-02-04T08:12:10;7.15;;;2.00;;
26098;SDS011;13860;52.370;6.764;2024-02-04T08:15:16;10.88;;;1.60;;
26098;SDS011;13860;52.370;6.764;2024-02-04T08:18:24;10.38;;;2.10;;
26098;SDS011;13860;52.370;6.764;2024-02-04T08:21:29;11.88;;;2.28;;
26098;SDS011;13860;52.370;6.764;2024-02-04T08:24:40;5.50;;;1.77;;
26098;SDS011;13860;52.370;6.764;2024-02-04T08:27:45;5.25;;;2.00;;
26098;SDS011;13860;52.370;6.764;2024-02-04T08:30:53;14.10;;;2.00;;
26098;SDS011;13860;52.370;6.764;2024-02-04T08:33:58;10.18;;;2.30;;
26098;SDS011;13860;52.370;6.764;2024-02-04T08:37:06;8.05;;;1.85;;
26098;SDS011;13860;52.370;6.764;2024-02-04T08:40:15;6.28;;;2.10;;
26098;SDS011;13860;52.370;6.764;2024-02-04T08:43:23;29.00;;;2.42;;
26098;SDS011;13860;52.370;6.764;2024-02-04T08:46:36;9.98;;;1.90;;
26098;SDS011;13860;52.370;6.764;2024-02-04T08:49:43;9.75;;;1.60;;
26098;SDS011;13860;52.370;6.764;2024-02-04T08:52:49;5.47;;;1.45;;
26098;SDS011;13860;52.370;6.764;2024-02-04T08:56:01;7.82;;;1.35;;
26098;SDS011;13860;52.370;6.764;2024-02-04T08:59:06;7.43;;;1.73;;
26098;SDS011;13860;52.370;6.764;2024-02-04T09:02:14;8.30;;;1.40;;
26098;SDS011;13860;52.370;6.764;2024-02-04T09:05:20;7.35;;;1.77;;
26098;SDS011;13860;52.370;6.764;2024-02-04T09:08:27;8.20;;;1.25;;
26098;SDS011;13860;52.370;6.764;2024-02-04T09:11:35;5.43;;;1.33;;
26098;SDS011;13860;52.370;6.764;2024-02-04T09:14:43;3.80;;;1.30;;
26098;SDS011;13860;52.370;6.764;2024-02-04T09:17:49;10.48;;;3.55;;
26098;SDS011;13860;52.370;6.764;2024-02-04T09:20:58;8.45;;;1.60;;
26098;SDS011;13860;52.370;6.764;2024-02-04T09:24:04;10.85;;;1.75;;
26098;SDS011;13860;52.370;6.764;2024-02-04T09:27:15;5.28;;;1.35;;
26098;SDS011;13860;52.370;6.764;2024-02-04T09:30:21;6.57;;;1.70;;
26098;SDS011;13860;52.370;6.764;2024-02-04T09:33:28;7.25;;;1.73;;
26098;SDS011;13860;52.370;6.764;2024-02-04T09:36:34;6.43;;;1.95;;
26098;SDS011;13860;52.370;6.764;2024-02-04T09:39:42;4.93;;;1.60;;
26098;SDS011;13860;52.370;6.764;2024-02-04T09:42:50;3.63;;;1.63;;
26098;SDS011;13860;52.370;6.764;2024-02-04T09:45:59;4.10;;;1.70;;
26098;SDS011;13860;52.370;6.764;2024-02-04T09:49:05;9.73;;;2.95;;
26098;SDS011;13860;52.370;6.764;2024-02-04T09:52:17;9.23;;;2.35;;
26098;SDS011;13860;52.370;6.764;2024-02-04T09:55:24;8.02;;;2.00;;
26098;SDS011;13860;52.370;6.764;2024-02-04T09:58:36;12.70;;;2.63;;
26098;SDS011;13860;52.370;6.764;2024-02-04T10:01:42;4.95;;;2.67;;
26098;SDS011;13860;52.370;6.764;2024-02-04T10:04:51;8.90;;;3.05;;
26098;SDS011;13860;52.370;6.764;2024-02-04T10:07:57;9.27;;;3.33;;
26098;SDS011;13860;52.370;6.764;2024-02-04T10:11:05;6.97;;;2.97;;
26098;SDS011;13860;52.370;6.764;2024-02-04T10:14:13;7.28;;;2.60;;
26098;SDS011;13860;52.370;6.764;2024-02-04T10:17:24;14.70;;;4.70;;
26098;SDS011;13860;52.370;6.764;2024-02-04T10:20:30;8.70;;;2.80;;
26098;SDS011;13860;52.370;6.764;2024-02-04T10:23:38;7.10;;;3.17;;
26098;SDS011;13860;52.370;6.764;2024-02-04T10:26:43;13.73;;;3.58;;
26098;SDS011;13860;52.370;6.764;2024-02-04T10:29:54;9.35;;;3.30;;
26098;SDS011;13860;52.370;6.764;2024-02-04T10:33:00;8.68;;;3.22;;
26098;SDS011;13860;52.370;6.764;2024-02-04T10:36:07;6.28;;;3.00;;
26098;SDS011;13860;52.370;6.764;2024-02-04T10:39:13;16.67;;;3.92;;
26098;SDS011;13860;52.370;6.764;2024-02-04T10:42:23;11.07;;;3.28;;
26098;SDS011;13860;52.370;6.764;2024-02-04T10:45:33;10.50;;;3.50;;
26098;SDS011;13860;52.370;6.764;2024-02-04T10:48:48;6.30;;;3.13;;
26098;SDS011;13860;52.370;6.764;2024-02-04T10:51:59;4.82;;;3.25;;
26098;SDS011;13860;52.370;6.764;2024-02-04T10:55:08;7.28;;;3.28;;
26098;SDS011;13860;52.370;6.764;2024-02-04T10:58:15;9.30;;;3.53;;
26098;SDS011;13860;52.370;6.764;2024-02-04T11:01:26;11.90;;;3.40;;
26098;SDS011;13860;52.370;6.764;2024-02-04T11:04:32;6.55;;;2.75;;
26098;SDS011;13860;52.370;6.764;2024-02-04T11:07:41;6.40;;;2.92;;
26098;SDS011;13860;52.370;6.764;2024-02-04T11:10:47;8.45;;;2.88;;
26098;SDS011;13860;52.370;6.764;2024-02-04T11:14:25;10.18;;;3.63;;
26098;SDS011;13860;52.370;6.764;2024-02-04T11:18:03;6.95;;;3.45;;
26098;SDS011;13860;52.370;6.764;2024-02-04T11:21:33;9.45;;;2.70;;
26098;SDS011;13860;52.370;6.764;2024-02-04T11:24:54;6.85;;;2.53;;
26098;SDS011;13860;52.370;6.764;2024-02-04T11:28:21;8.38;;;2.22;;
26098;SDS011;13860;52.370;6.764;2024-02-04T11:31:43;5.65;;;2.72;;
26098;SDS011;13860;52.370;6.764;2024-02-04T11:34:57;7.63;;;3.28;;
26098;SDS011;13860;52.370;6.764;2024-02-04T11:38:17;7.35;;;2.78;;
26098;SDS011;13860;52.370;6.764;2024-02-04T11:41:43;8.25;;;2.65;;
26098;SDS011;13860;52.370;6.764;2024-02-04T11:45:10;5.80;;;2.15;;
26098;SDS011;13860;52.370;6.764;2024-02-04T11:48:28;6.25;;;2.03;;
26098;SDS011;13860;52.370;6.764;2024-02-04T11:51:58;7.13;;;1.95;;
26098;SDS011;13860;52.370;6.764;2024-02-04T11:55:12;4.35;;;1.60;;
26098;SDS011;13860;52.370;6.764;2024-02-04T11:58:28;3.88;;;1.30;;
26098;SDS011;13860;52.370;6.764;2024-02-04T12:01:53;1.50;;;1.13;;
26098;SDS011;13860;52.370;6.764;2024-02-04T12:05:01;3.40;;;1.10;;
26098;SDS011;13860;52.370;6.764;2024-02-04T12:08:20;3.30;;;1.30;;
26098;SDS011;13860;52.370;6.764;2024-02-04T12:11:45;6.68;;;1.48;;
26098;SDS011;13860;52.370;6.764;2024-02-04T12:15:10;3.45;;;0.60;;
26098;SDS011;13860;52.370;6.764;2024-02-04T12:18:47;8.68;;;1.10;;
26098;SDS011;13860;52.370;6.764;2024-02-04T12:21:58;5.07;;;1.40;;
26098;SDS011;13860;52.370;6.764;2024-02-04T12:25:13;3.03;;;1.00;;
26098;SDS011;13860;52.370;6.764;2024-02-04T12:28:24;6.43;;;1.00;;
26098;SDS011;13860;52.370;6.764;2024-02-04T12:31:43;5.35;;;1.38;;
26098;SDS011;13860;52.370;6.764;2024-02-04T12:35:13;3.50;;;1.05;;
26098;SDS011;13860;52.370;6.764;2024-02-04T12:38:30;6.80;;;1.05;;
26098;SDS011;13860;52.370;6.764;2024-02-04T12:41:50;4.50;;;1.30;;
26098;SDS011;13860;52.370;6.764;2024-02-04T12:45:08;6.85;;;1.60;;
26098;SDS011;13860;52.370;6.764;2024-02-04T12:48:20;3.67;;;1.20;;
26098;SDS011;13860;52.370;6.764;2024-02-04T12:51:38;1.73;;;1.05;;
26098;SDS011;13860;52.370;6.764;2024-02-04T12:55:05;5.72;;;1.70;;
26098;SDS011;13860;52.370;6.764;2024-02-04T12:58:17;3.35;;;1.35;;
26098;SDS011;13860;52.370;6.764;2024-02-04T13:01:36;3.75;;;1.15;;
26098;SDS011;13860;52.370;6.764;2024-02-04T13:04:58;2.83;;;1.63;;
26098;SDS011;13860;52.370;6.764;2024-02-04T13:08:08;4.03;;;1.40;;
26098;SDS011;13860;52.370;6.764;2024-02-04T13:11:30;1.88;;;1.10;;
26098;SDS011;13860;52.370;6.764;2024-02-04T13:14:52;2.80;;;1.05;;
26098;SDS011;13860;52.370;6.764;2024-02-04T13:17:59;4.55;;;1.00;;
26098;SDS011;13860;52.370;6.764;2024-02-04T13:21:22;4.88;;;1.48;;
26098;SDS011;13860;52.370;6.764;2024-02-04T13:24:37;4.53;;;1.40;;
26098;SDS011;13860;52.370;6.764;2024-02-04T13:27:50;4.30;;;1.10;;
26098;SDS011;13860;52.370;6.764;2024-02-04T13:30:58;3.85;;;1.13;;
26098;SDS011;13860;52.370;6.764;2024-02-04T13:34:11;6.20;;;1.20;;
26098;SDS011;13860;52.370;6.764;2024-02-04T13:37:30;8.75;;;1.38;;
26098;SDS011;13860;52.370;6.764;2024-02-04T13:40:40;5.75;;;1.40;;
26098;SDS011;13860;52.370;6.764;2024-02-04T13:43:46;12.32;;;1.70;;
26098;SDS011;13860;52.370;6.764;2024-02-04T13:46:57;4.65;;;1.35;;
26098;SDS011;13860;52.370;6.764;2024-02-04T13:50:03;4.13;;;1.00;;
26098;SDS011;13860;52.370;6.764;2024-02-04T13:53:12;2.22;;;0.77;;
26098;SDS011;13860;52.370;6.764;2024-02-04T13:56:18;2.13;;;0.98;;
26098;SDS011;13860;52.370;6.764;2024-02-04T13:59:27;2.88;;;1.10;;
26098;SDS011;13860;52.370;6.764;2024-02-04T14:02:35;6.32;;;1.00;;
26098;SDS011;13860;52.370;6.764;2024-02-04T14:05:43;3.28;;;1.85;;
26098;SDS011;13860;52.370;6.764;2024-02-04T14:08:48;3.88;;;1.10;;
26098;SDS011;13860;52.370;6.764;2024-02-04T14:11:56;1.67;;;0.80;;
26098;SDS011;13860;52.370;6.764;2024-02-04T14:15:02;2.90;;;0.73;;
26098;SDS011;13860;52.370;6.764;2024-02-04T14:18:16;2.72;;;0.88;;
26098;SDS011;13860;52.370;6.764;2024-02-04T14:21:22;2.65;;;1.15;;
26098;SDS011;13860;52.370;6.764;2024-02-04T14:24:30;2.03;;;0.90;;
26098;SDS011;13860;52.370;6.764;2024-02-04T14:27:36;0.70;;;0.70;;
26098;SDS011;13860;52.370;6.764;2024-02-04T14:30:47;7.90;;;1.55;;
26098;SDS011;13860;52.370;6.764;2024-02-04T14:33:59;2.40;;;1.00;;
26098;SDS011;13860;52.370;6.764;2024-02-04T14:37:07;1.58;;;0.95;;
26098;SDS011;13860;52.370;6.764;2024-02-04T14:40:15;2.03;;;0.88;;
26098;SDS011;13860;52.370;6.764;2024-02-04T14:43:23;2.30;;;1.13;;
26098;SDS011;13860;52.370;6.764;2024-02-04T14:46:29;1.17;;;1.05;;
26098;SDS011;13860;52.370;6.764;2024-02-04T14:49:39;5.78;;;2.55;;
26098;SDS011;13860;52.370;6.764;2024-02-04T14:52:45;3.55;;;1.27;;
26098;SDS011;13860;52.370;6.764;2024-02-04T14:55:54;4.82;;;1.20;;
26098;SDS011;13860;52.370;6.764;2024-02-04T14:59:07;3.03;;;1.33;;
26098;SDS011;13860;52.370;6.764;2024-02-04T15:02:27;1.70;;;1.13;;
26098;SDS011;13860;52.370;6.764;2024-02-04T15:05:36;2.60;;;1.13;;
26098;SDS011;13860;52.370;6.764;2024-02-04T15:08:45;2.58;;;1.33;;
26098;SDS011;13860;52.370;6.764;2024-02-04T15:11:51;1.92;;;1.10;;
26098;SDS011;13860;52.370;6.764;2024-02-04T15:14:59;5.60;;;1.75;;
26098;SDS011;13860;52.370;6.764;2024-02-04T15:18:06;3.53;;;1.40;;
26098;SDS011;13860;52.370;6.764;2024-02-04T15:21:17;3.55;;;1.30;;
26098;SDS011;13860;52.370;6.764;2024-02-04T15:24:26;2.35;;;1.40;;
26098;SDS011;13860;52.370;6.764;2024-02-04T15:27:34;3.15;;;1.48;;
26098;SDS011;13860;52.370;6.764;2024-02-04T15:30:46;4.00;;;1.70;;
26098;SDS011;13860;52.370;6.764;2024-02-04T15:34:02;3.65;;;2.05;;
26098;SDS011;13860;52.370;6.764;2024-02-04T15:37:14;5.28;;;2.13;;
26098;SDS011;13860;52.370;6.764;2024-02-04T15:40:33;8.82;;;2.72;;
26098;SDS011;13860;52.370;6.764;2024-02-04T15:43:39;6.50;;;2.03;;
26098;SDS011;13860;52.370;6.764;2024-02-04T15:46:47;5.70;;;2.13;;
26098;SDS011;13860;52.370;6.764;2024-02-04T15:49:57;10.07;;;2.30;;
26098;SDS011;13860;52.370;6.764;2024-02-04T15:53:08;4.95;;;2.30;;
26098;SDS011;13860;52.370;6.764;2024-02-04T15:56:16;6.22;;;2.78;;
26098;SDS011;13860;52.370;6.764;2024-02-04T15:59:30;8.95;;;2.70;;
26098;SDS011;13860;52.370;6.764;2024-02-04T16:02:47;7.43;;;3.03;;
26098;SDS011;13860;52.370;6.764;2024-02-04T16:05:56;4.45;;;2.30;;
26098;SDS011;13860;52.370;6.764;2024-02-04T16:09:05;6.82;;;2.35;;
26098;SDS011;13860;52.370;6.764;2024-02-04T16:12:17;7.80;;;2.78;;
26098;SDS011;13860;52.370;6.764;2024-02-04T16:15:24;8.88;;;3.47;;
26098;SDS011;13860;52.370;6.764;2024-02-04T16:18:34;10.55;;;2.90;;
26098;SDS011;13860;52.370;6.764;2024-02-04T16:21:40;3.90;;;2.67;;
26098;SDS011;13860;52.370;6.764;2024-02-04T16:24:51;10.15;;;2.85;;
26098;SDS011;13860;52.370;6.764;2024-02-04T16:28:00;7.93;;;3.03;;
26098;SDS011;13860;52.370;6.764;2024-02-04T16:31:07;8.27;;;3.30;;
26098;SDS011;13860;52.370;6.764;2024-02-04T16:34:13;8.63;;;3.70;;
26098;SDS011;13860;52.370;6.764;2024-02-04T16:37:21;4.93;;;3.88;;
26098;SDS011;13860;52.370;6.764;2024-02-04T16:40:29;8.45;;;4.90;;
26098;SDS011;13860;52.370;6.764;2024-02-04T16:43:36;12.43;;;6.78;;
26098;SDS011;13860;52.370;6.764;2024-02-04T16:46:43;13.48;;;6.90;;
26098;SDS011;13860;52.370;6.764;2024-02-04T16:49:51;15.13;;;7.68;;
26098;SDS011;13860;52.370;6.764;2024-02-04T16:52:57;13.52;;;6.35;;
26098;SDS011;13860;52.370;6.764;2024-02-04T16:56:09;17.60;;;7.53;;
26098;SDS011;13860;52.370;6.764;2024-02-04T16:59:15;14.95;;;7.45;;
26098;SDS011;13860;52.370;6.764;2024-02-04T17:02:24;21.10;;;8.45;;
26098;SDS011;13860;52.370;6.764;2024-02-04T17:05:30;14.35;;;6.65;;
26098;SDS011;13860;52.370;6.764;2024-02-04T17:08:58;13.95;;;6.95;;
26098;SDS011;13860;52.370;6.764;2024-02-04T17:12:19;17.95;;;7.55;;
26098;SDS011;13860;52.370;6.764;2024-02-04T17:15:28;11.63;;;6.63;;
26098;SDS011;13860;52.370;6.764;2024-02-04T17:18:38;19.52;;;8.48;;
26098;SDS011;13860;52.370;6.764;2024-02-04T17:21:56;19.35;;;7.32;;
26098;SDS011;13860;52.370;6.764;2024-02-04T17:25:05;23.05;;;7.78;;
26098;SDS011;13860;52.370;6.764;2024-02-04T17:28:20;22.77;;;6.30;;
26098;SDS011;13860;52.370;6.764;2024-02-04T17:31:26;18.52;;;7.70;;
26098;SDS011;13860;52.370;6.764;2024-02-04T17:34:35;17.40;;;6.18;;
26098;SDS011;13860;52.370;6.764;2024-02-04T17:37:41;17.42;;;7.05;;
26098;SDS011;13860;52.370;6.764;2024-02-04T17:40:48;20.05;;;6.40;;
26098;SDS011;13860;52.370;6.764;2024-02-04T17:43:57;17.20;;;6.78;;
26098;SDS011;13860;52.370;6.764;2024-02-04T17:47:05;18.48;;;7.65;;
26098;SDS011;13860;52.370;6.764;2024-02-04T17:50:12;17.20;;;7.43;;
26098;SDS011;13860;52.370;6.764;2024-02-04T17:53:19;16.27;;;7.68;;
26098;SDS011;13860;52.370;6.764;2024-02-04T17:56:25;24.95;;;8.77;;
26098;SDS011;13860;52.370;6.764;2024-02-04T17:59:35;18.98;;;7.45;;
26098;SDS011;13860;52.370;6.764;2024-02-04T18:02:41;16.65;;;6.88;;
26098;SDS011;13860;52.370;6.764;2024-02-04T18:05:51;18.63;;;7.80;;
26098;SDS011;13860;52.370;6.764;2024-02-04T18:08:56;16.50;;;6.93;;
26098;SDS011;13860;52.370;6.764;2024-02-04T18:12:04;21.77;;;8.43;;
26098;SDS011;13860;52.370;6.764;2024-02-04T18:15:14;25.80;;;8.27;;
26098;SDS011;13860;52.370;6.764;2024-02-04T18:18:21;15.35;;;8.30;;
26098;SDS011;13860;52.370;6.764;2024-02-04T18:21:27;15.07;;;8.10;;
26098;SDS011;13860;52.370;6.764;2024-02-04T18:24:35;17.08;;;7.45;;
26098;SDS011;13860;52.370;6.764;2024-02-04T18:27:41;15.80;;;8.00;;
26098;SDS011;13860;52.370;6.764;2024-02-04T18:30:51;21.85;;;9.07;;
26098;SDS011;13860;52.370;6.764;2024-02-04T18:33:58;22.65;;;8.90;;
26098;SDS011;13860;52.370;6.764;2024-02-04T18:37:07;19.30;;;7.68;;
26098;SDS011;13860;52.370;6.764;2024-02-04T18:40:13;23.67;;;8.95;;
26098;SDS011;13860;52.370;6.764;2024-02-04T18:43:21;19.42;;;7.60;;
26098;SDS011;13860;52.370;6.764;2024-02-04T18:46:29;18.17;;;7.55;;
26098;SDS011;13860;52.370;6.764;2024-02-04T18:49:37;19.80;;;8.55;;
26098;SDS011;13860;52.370;6.764;2024-02-04T18:52:43;20.85;;;7.28;;